Time;durP1;ratioP1;P1;durP2;ratioP2;P2;SDS_P1;SDS_P2;PMS_P1;PMS_P2;Temp;Humidity;BMP_temperature;BMP_pressure;BME280_temperature;BME280_humidity;BME280_pressure;Samples;Min_cycle;Max_cycle;Signal;HPM_P1;HPM_P2
2022/08/21 00:00:54;;;;;;;2.42;2.33;;;17.90;99.90;;;;;;5055292;28;20233;-86
2022/08/21 00:03:23;;;;;;;3.33;3.03;;;17.90;99.90;;;;;;5057340;28;20205;-86
2022/08/21 00:05:53;;;;;;;2.63;2.42;;;17.90;99.90;;;;;;5056707;28;20202;-86
2022/08/21 00:08:22;;;;;;;2.50;2.40;;;17.90;99.90;;;;;;5057153;28;20240;-85
2022/08/21 00:10:51;;;;;;;2.65;2.45;;;17.90;99.90;;;;;;5057671;28;20268;-86
2022/08/21 00:13:20;;;;;;;3.22;2.92;;;17.90;99.90;;;;;;5057418;28;20232;-85
2022/08/21 00:15:49;;;;;;;3.17;2.97;;;17.80;99.90;;;;;;5057262;28;20227;-85
2022/08/21 00:18:18;;;;;;;2.63;2.42;;;17.80;99.90;;;;;;5057684;28;20288;-86
2022/08/21 00:20:49;;;;;;;2.72;2.53;;;17.90;99.90;;;;;;5057181;28;20205;-85
2022/08/21 00:23:18;;;;;;;3.13;2.83;;;17.90;99.90;;;;;;5057664;28;20285;-86
2022/08/21 00:25:46;;;;;;;2.83;2.63;;;17.90;99.90;;;;;;5058130;28;20202;-85
2022/08/21 00:28:15;;;;;;;2.90;2.70;;;17.80;99.90;;;;;;5057062;28;20284;-87
2022/08/21 00:30:44;;;;;;;2.47;2.30;;;17.90;99.90;;;;;;5057142;28;20216;-86
2022/08/21 00:33:13;;;;;;;2.88;2.67;;;17.90;99.90;;;;;;5058518;28;20209;-86
2022/08/21 00:35:43;;;;;;;2.88;2.67;;;17.80;99.90;;;;;;5056526;28;20260;-87
2022/08/21 00:38:14;;;;;;;4.40;3.40;;;17.80;99.90;;;;;;5058140;28;20236;-87
2022/08/21 00:40:45;;;;;;;3.70;3.40;;;17.80;99.90;;;;;;5057051;28;20216;-86
2022/08/21 00:43:19;;;;;;;3.03;2.83;;;17.80;99.90;;;;;;5056584;28;20288;-85
2022/08/21 00:45:50;;;;;;;3.38;3.17;;;17.70;99.90;;;;;;5057810;28;20206;-86
2022/08/21 00:48:19;;;;;;;3.38;2.90;;;17.70;99.90;;;;;;5057528;28;20267;-86
2022/08/21 00:50:51;;;;;;;3.50;3.20;;;17.80;99.90;;;;;;5056174;28;20264;-85
2022/08/21 00:53:21;;;;;;;3.47;3.22;;;17.80;99.90;;;;;;5055663;28;20216;-86
2022/08/21 00:55:50;;;;;;;3.25;3.05;;;17.80;99.90;;;;;;5055412;28;20235;-86
2022/08/21 00:58:19;;;;;;;4.38;3.97;;;17.80;99.90;;;;;;5055539;28;20230;-85
2022/08/21 01:00:50;;;;;;;3.42;3.13;;;17.80;99.90;;;;;;5055788;28;20194;-85
2022/08/21 01:03:22;;;;;;;3.42;2.60;;;17.80;99.90;;;;;;5055426;28;20210;-85
2022/08/21 01:05:52;;;;;;;3.28;3.08;;;17.80;99.90;;;;;;5055584;28;20225;-87
2022/08/21 01:08:23;;;;;;;3.58;3.30;;;17.80;99.90;;;;;;5055229;28;20209;-86
2022/08/21 01:10:54;;;;;;;2.67;2.47;;;17.90;99.90;;;;;;5054695;28;20222;-86
2022/08/21 01:13:24;;;;;;;3.88;3.58;;;17.90;99.90;;;;;;5055044;28;20208;-86
2022/08/21 01:15:55;;;;;;;4.72;4.28;;;17.90;99.90;;;;;;5055012;28;20253;-85
2022/08/21 01:18:25;;;;;;;10.43;3.75;;;17.90;99.90;;;;;;5054698;28;20287;-85
2022/08/21 01:21:09;;;;;;;3.65;3.35;;;17.90;99.90;;;;;;5054844;28;20225;-85
2022/08/21 01:23:42;;;;;;;4.32;3.97;;;17.90;99.90;;;;;;5054838;28;20213;-85
2022/08/21 01:26:12;;;;;;;3.65;3.35;;;18.00;99.90;;;;;;5055150;28;20233;-85
2022/08/21 01:28:46;;;;;;;3.65;3.45;;;18.00;99.90;;;;;;5054996;28;20205;-85
2022/08/21 01:31:15;;;;;;;4.45;4.05;;;18.00;99.90;;;;;;5054542;28;20313;-85
2022/08/21 01:33:51;;;;;;;3.97;3.67;;;18.10;99.90;;;;;;5054487;28;20237;-86
2022/08/21 01:36:21;;;;;;;3.85;3.55;;;18.10;99.90;;;;;;5054238;28;20232;-85
2022/08/21 01:38:50;;;;;;;3.35;3.15;;;18.10;99.90;;;;;;5054608;28;20294;-85
2022/08/21 01:41:18;;;;;;;3.97;3.67;;;18.10;99.90;;;;;;5054538;28;20226;-85
2022/08/21 01:43:47;;;;;;;4.20;3.90;;;18.10;99.90;;;;;;5054587;28;20244;-85
2022/08/21 01:46:15;;;;;;;4.93;4.43;;;18.00;99.90;;;;;;5054500;28;20292;-85
2022/08/21 01:48:44;;;;;;;3.80;3.50;;;18.00;99.90;;;;;;5054083;28;20216;-86
2022/08/21 01:51:12;;;;;;;3.17;2.97;;;18.00;99.90;;;;;;5054235;28;20232;-85
2022/08/21 01:53:42;;;;;;;3.80;3.50;;;17.90;99.90;;;;;;5054462;28;20216;-85
2022/08/21 01:56:13;;;;;;;3.80;3.50;;;17.90;99.90;;;;;;5054601;28;20222;-86
2022/08/21 01:58:43;;;;;;;3.38;3.17;;;17.80;99.90;;;;;;5053875;28;20280;-86
2022/08/21 02:01:12;;;;;;;3.78;3.47;;;17.80;99.90;;;;;;5053718;28;20230;-86
2022/08/21 02:03:40;;;;;;;3.28;3.08;;;17.80;99.90;;;;;;5054486;28;20209;-85
2022/08/21 02:06:14;;;;;;;3.25;2.90;;;17.80;99.90;;;;;;5053635;28;20257;-85
2022/08/21 02:08:44;;;;;;;4.10;3.30;;;17.80;99.90;;;;;;5053920;28;20270;-86
2022/08/21 02:11:13;;;;;;;3.92;3.63;;;17.80;99.90;;;;;;5055282;28;20304;-86
2022/08/21 02:13:41;;;;;;;4.00;3.70;;;17.80;99.90;;;;;;5054286;28;20309;-85
2022/08/21 02:16:10;;;;;;;4.43;4.13;;;17.80;99.90;;;;;;5053628;28;20305;-85
2022/08/21 02:18:40;;;;;;;3.80;3.53;;;17.80;99.90;;;;;;5053622;28;20271;-85
2022/08/21 02:21:08;;;;;;;5.50;4.20;;;17.70;99.90;;;;;;5053515;28;20230;-85
2022/08/21 02:23:37;;;;;;;3.60;3.30;;;17.70;99.90;;;;;;5053021;28;20289;-85
2022/08/21 02:26:09;;;;;;;3.65;3.45;;;17.60;99.90;;;;;;5053638;28;20208;-86
2022/08/21 02:28:38;;;;;;;3.08;2.88;;;17.60;99.90;;;;;;5053372;28;20289;-85
2022/08/21 02:31:07;;;;;;;2.85;2.65;;;17.60;99.90;;;;;;5053240;28;20230;-85
2022/08/21 02:33:35;;;;;;;3.33;2.55;;;17.50;99.90;;;;;;5053393;28;20205;-85
2022/08/21 02:36:05;;;;;;;3.10;2.90;;;17.50;99.90;;;;;;5053146;28;20234;-85
2022/08/21 02:38:37;;;;;;;3.53;3.22;;;17.40;99.90;;;;;;5053211;28;20205;-85
2022/08/21 02:41:10;;;;;;;4.03;2.53;;;17.40;99.90;;;;;;5053603;28;20308;-85
2022/08/21 02:43:38;;;;;;;2.65;2.55;;;17.40;99.90;;;;;;5053598;28;20300;-85
2022/08/21 02:46:09;;;;;;;2.38;2.22;;;17.40;99.90;;;;;;5069915;28;20293;-86
2022/08/21 02:48:37;;;;;;;3.10;2.90;;;17.40;99.90;;;;;;5064066;28;20281;-86
2022/08/21 02:51:08;;;;;;;3.35;3.10;;;17.40;99.90;;;;;;5053090;28;20280;-86
2022/08/21 02:53:37;;;;;;;3.05;2.85;;;17.30;99.90;;;;;;5053207;28;20202;-86
2022/08/21 02:56:10;;;;;;;3.28;3.08;;;17.40;99.90;;;;;;5052961;28;20285;-85
2022/08/21 02:58:41;;;;;;;4.38;3.75;;;17.30;99.90;;;;;;5052793;28;20274;-86
2022/08/21 03:01:10;;;;;;;4.20;3.90;;;17.30;99.90;;;;;;5052825;28;20226;-85
2022/08/21 03:03:40;;;;;;;3.90;3.60;;;17.40;99.90;;;;;;5053104;28;20204;-85
2022/08/21 03:06:10;;;;;;;4.35;4.05;;;17.30;99.90;;;;;;5052753;28;20201;-85
2022/08/21 03:08:39;;;;;;;3.72;3.42;;;17.40;99.90;;;;;;5052899;28;20206;-85
2022/08/21 03:11:09;;;;;;;4.15;3.78;;;17.40;99.90;;;;;;5052788;28;20308;-87
2022/08/21 03:13:40;;;;;;;2.58;2.47;;;17.50;99.90;;;;;;5052869;28;20205;-87
2022/08/21 03:16:09;;;;;;;3.08;2.88;;;17.50;99.90;;;;;;5052884;28;20205;-87
2022/08/21 03:18:38;;;;;;;2.90;2.55;;;17.50;99.90;;;;;;5052645;28;20308;-86
2022/08/21 03:21:07;;;;;;;2.35;2.25;;;17.50;99.90;;;;;;5052768;28;20237;-87
2022/08/21 03:23:35;;;;;;;2.25;2.15;;;17.50;99.90;;;;;;5052722;28;20212;-86
2022/08/21 03:26:04;;;;;;;3.33;2.40;;;17.50;99.90;;;;;;5052579;28;20210;-86
2022/08/21 03:28:36;;;;;;;2.63;2.50;;;17.50;99.90;;;;;;5052496;28;20205;-86
2022/08/21 03:31:05;;;;;;;4.82;2.45;;;17.50;99.90;;;;;;5052764;28;20245;-87
2022/08/21 03:33:33;;;;;;;2.70;2.50;;;17.40;99.90;;;;;;5052859;28;20289;-87
2022/08/21 03:36:04;;;;;;;2.90;2.70;;;17.50;99.90;;;;;;5056764;28;20225;-85
2022/08/21 03:38:35;;;;;;;2.97;2.65;;;17.50;99.90;;;;;;5056303;28;20255;-88
2022/08/21 03:41:05;;;;;;;2.58;2.42;;;17.50;99.90;;;;;;5056654;28;20310;-87
2022/08/21 03:43:38;;;;;;;2.65;2.45;;;17.50;99.90;;;;;;5057000;28;20223;-86
2022/08/21 03:46:07;;;;;;;2.17;2.08;;;17.50;99.90;;;;;;5056921;28;20256;-85
2022/08/21 03:48:37;;;;;;;1.80;1.70;;;17.50;99.90;;;;;;5056159;28;20284;-85
2022/08/21 03:51:06;;;;;;;1.65;1.55;;;17.50;99.90;;;;;;5056398;28;20256;-85
2022/08/21 03:53:35;;;;;;;2.42;2.33;;;17.60;99.90;;;;;;5056274;28;20205;-86
2022/08/21 03:56:04;;;;;;;1.85;1.75;;;17.60;99.90;;;;;;5056272;28;20205;-85
2022/08/21 03:58:33;;;;;;;1.60;1.50;;;17.60;99.90;;;;;;5055875;28;20229;-85
2022/08/21 04:01:06;;;;;;;1.80;1.70;;;17.60;99.90;;;;;;5055869;28;20281;-86
2022/08/21 04:03:36;;;;;;;1.20;1.20;;;17.60;99.90;;;;;;5056287;28;20236;-86
2022/08/21 04:06:06;;;;;;;1.42;1.42;;;17.60;99.90;;;;;;5055997;28;20289;-85
2022/08/21 04:08:34;;;;;;;2.05;1.95;;;17.60;99.90;;;;;;5055782;28;20303;-86
2022/08/21 04:11:03;;;;;;;1.52;1.42;;;17.60;99.90;;;;;;5056246;28;20218;-86
2022/08/21 04:13:31;;;;;;;1.60;1.52;;;17.60;99.90;;;;;;5056161;28;20241;-86
2022/08/21 04:16:00;;;;;;;3.67;2.03;;;17.60;99.90;;;;;;5056016;28;20269;-86
2022/08/21 04:18:29;;;;;;;1.70;1.60;;;17.70;99.90;;;;;;5055407;28;20226;-86
2022/08/21 04:20:59;;;;;;;2.65;2.45;;;17.70;99.90;;;;;;5056006;28;20226;-85
2022/08/21 04:23:29;;;;;;;2.03;1.92;;;17.70;99.90;;;;;;5056061;28;20236;-86
2022/08/21 04:25:58;;;;;;;2.10;2.00;;;17.70;99.90;;;;;;5056530;28;20210;-86
2022/08/21 04:28:28;;;;;;;2.00;1.90;;;17.70;99.90;;;;;;5055654;28;20210;-86
2022/08/21 04:30:58;;;;;;;1.60;1.52;;;17.70;99.90;;;;;;5055466;28;20264;-86
2022/08/21 04:33:27;;;;;;;1.90;1.80;;;17.80;99.90;;;;;;5055922;28;20207;-85
2022/08/21 04:35:56;;;;;;;1.92;1.83;;;17.80;99.90;;;;;;5055650;28;20284;-86
2022/08/21 04:38:26;;;;;;;1.73;1.63;;;17.80;99.90;;;;;;5055509;28;20281;-86
2022/08/21 04:41:04;;;;;;;2.63;2.42;;;17.80;99.90;;;;;;5055515;28;20312;-84
2022/08/21 04:43:32;;;;;;;2.20;2.10;;;17.80;99.90;;;;;;5055244;28;20261;-86
2022/08/21 04:46:01;;;;;;;2.30;2.15;;;17.80;99.90;;;;;;5054921;28;20202;-87
2022/08/21 04:48:29;;;;;;;2.03;1.92;;;17.80;99.90;;;;;;5054803;28;20214;-85
2022/08/21 04:51:06;;;;;;;3.58;2.58;;;17.80;99.90;;;;;;5055165;28;20240;-86
2022/08/21 04:53:38;;;;;;;2.40;2.30;;;17.80;99.90;;;;;;5055909;28;20287;-85
2022/08/21 04:56:09;;;;;;;2.75;2.55;;;17.80;99.90;;;;;;5055520;28;20209;-86
2022/08/21 04:58:39;;;;;;;2.53;2.22;;;17.80;99.90;;;;;;5054716;28;20285;-86
2022/08/21 05:01:11;;;;;;;2.08;1.98;;;17.90;99.90;;;;;;5055396;28;20301;-86
2022/08/21 05:03:40;;;;;;;3.00;2.65;;;17.80;99.90;;;;;;5055020;28;20214;-86
2022/08/21 05:06:13;;;;;;;2.22;2.10;;;17.90;99.90;;;;;;5055079;28;20292;-85
2022/08/21 05:08:43;;;;;;;2.58;2.38;;;17.90;99.90;;;;;;5055051;28;20243;-86
2022/08/21 05:11:12;;;;;;;1.83;1.73;;;17.80;99.90;;;;;;5054986;28;20312;-86
2022/08/21 05:13:41;;;;;;;2.60;2.40;;;17.90;99.90;;;;;;5055115;28;20284;-86
2022/08/21 05:16:09;;;;;;;2.47;2.38;;;17.90;99.90;;;;;;5054987;28;20216;-86
2022/08/21 05:18:38;;;;;;;2.25;2.15;;;18.00;99.90;;;;;;5054850;28;20222;-86
2022/08/21 05:21:06;;;;;;;3.28;2.97;;;18.00;99.90;;;;;;5054757;28;20304;-86
2022/08/21 05:23:36;;;;;;;2.33;2.22;;;18.00;99.90;;;;;;5054687;28;20265;-86
2022/08/21 05:26:05;;;;;;;2.50;2.30;;;18.00;99.90;;;;;;5054658;28;20212;-86
2022/08/21 05:28:33;;;;;;;2.58;2.40;;;18.10;99.90;;;;;;5054880;28;20202;-86
2022/08/21 05:31:02;;;;;;;4.82;2.65;;;18.20;99.90;;;;;;5054628;28;20312;-86
2022/08/21 05:33:30;;;;;;;2.17;2.08;;;18.20;99.90;;;;;;5055164;28;20281;-86
2022/08/21 05:35:58;;;;;;;3.03;2.83;;;18.20;99.90;;;;;;5054345;28;20201;-86
2022/08/21 05:38:28;;;;;;;2.88;2.67;;;18.20;99.90;;;;;;5054388;28;20221;-86
2022/08/21 05:40:58;;;;;;;3.38;3.08;;;18.30;99.90;;;;;;5054900;28;20225;-86
2022/08/21 05:43:26;;;;;;;2.65;2.55;;;18.30;99.90;;;;;;5054353;28;20206;-86
2022/08/21 05:45:54;;;;;;;2.92;2.72;;;18.30;99.90;;;;;;5054667;28;20214;-86
2022/08/21 05:48:24;;;;;;;3.03;2.83;;;18.30;99.90;;;;;;5054056;28;20216;-86
2022/08/21 05:50:54;;;;;;;2.92;2.72;;;18.30;99.90;;;;;;5054064;28;20317;-86
2022/08/21 05:53:24;;;;;;;2.47;2.35;;;18.30;99.90;;;;;;5054176;28;20301;-86
2022/08/21 05:55:52;;;;;;;2.60;2.40;;;18.40;99.90;;;;;;5054387;28;20245;-86
2022/08/21 05:58:23;;;;;;;2.95;2.67;;;18.40;99.90;;;;;;5052957;28;20225;-85
2022/08/21 06:00:52;;;;;;;2.78;2.58;;;18.40;99.90;;;;;;5057858;28;20289;-85
2022/08/21 06:03:25;;;;;;;3.58;2.70;;;18.50;99.90;;;;;;5071658;28;20293;-85
2022/08/21 06:05:53;;;;;;;2.97;2.78;;;18.50;99.90;;;;;;5061188;28;20237;-86
2022/08/21 06:08:23;;;;;;;3.05;2.80;;;18.50;99.90;;;;;;5053896;28;20288;-86
2022/08/21 06:10:52;;;;;;;2.50;2.30;;;18.60;99.90;;;;;;5054107;28;20264;-86
2022/08/21 06:13:24;;;;;;;3.63;2.97;;;18.60;99.90;;;;;;5053977;28;20212;-86
2022/08/21 06:16:03;;;;;;;2.92;2.55;;;18.60;99.90;;;;;;5053605;28;20208;-85
2022/08/21 06:18:32;;;;;;;2.83;2.63;;;18.70;99.90;;;;;;5053667;28;20217;-86
2022/08/21 06:21:00;;;;;;;2.88;2.67;;;18.70;99.90;;;;;;5053724;28;20221;-85
2022/08/21 06:23:28;;;;;;;3.38;2.83;;;18.70;99.90;;;;;;5053565;28;20293;-85
2022/08/21 06:26:01;;;;;;;2.95;2.75;;;18.70;99.90;;;;;;5053807;28;20265;-85
2022/08/21 06:28:31;;;;;;;3.28;3.03;;;18.70;99.90;;;;;;5053446;28;20261;-85
2022/08/21 06:30:59;;;;;;;3.08;2.88;;;18.80;99.90;;;;;;5053028;28;20316;-86
2022/08/21 06:33:28;;;;;;;2.40;2.30;;;18.80;99.90;;;;;;5053465;28;20209;-86
2022/08/21 06:35:59;;;;;;;2.40;2.30;;;18.80;99.90;;;;;;5053318;28;20201;-86
2022/08/21 06:38:28;;;;;;;2.47;2.38;;;18.80;99.90;;;;;;5052990;28;20289;-86
2022/08/21 06:40:58;;;;;;;4.50;3.00;;;18.90;99.90;;;;;;5053425;28;20229;-86
2022/08/21 06:43:28;;;;;;;4.22;3.10;;;18.90;99.90;;;;;;5053056;28;20261;-86
2022/08/21 06:46:09;;;;;;;2.47;2.38;;;18.90;99.90;;;;;;5052857;28;20205;-85
2022/08/21 06:48:37;;;;;;;2.67;2.47;;;18.90;99.90;;;;;;5052925;28;20281;-85
2022/08/21 06:51:06;;;;;;;4.30;3.45;;;19.00;99.90;;;;;;5053275;28;20217;-86
2022/08/21 06:53:34;;;;;;;3.25;2.85;;;19.00;99.90;;;;;;5053032;28;20202;-85
2022/08/21 06:56:03;;;;;;;3.50;3.30;;;19.00;99.90;;;;;;5053384;28;20288;-86
2022/08/21 06:58:32;;;;;;;3.30;2.90;;;19.00;99.90;;;;;;5052779;28;20233;-86
2022/08/21 07:01:00;;;;;;;2.90;2.67;;;19.00;99.90;;;;;;5052873;28;20309;-86
2022/08/21 07:03:32;;;;;;;2.50;2.40;;;19.00;99.90;;;;;;5052965;28;20206;-86
2022/08/21 07:06:01;;;;;;;2.42;2.22;;;19.00;99.90;;;;;;5052334;28;20202;-86
2022/08/21 07:08:29;;;;;;;2.60;2.40;;;19.10;99.90;;;;;;5052629;28;20216;-86
2022/08/21 07:11:01;;;;;;;2.38;2.28;;;19.10;99.90;;;;;;5052849;28;20221;-86
2022/08/21 07:13:29;;;;;;;3.03;2.83;;;19.10;99.90;;;;;;5052750;28;20269;-86
2022/08/21 07:15:58;;;;;;;3.10;2.90;;;19.10;99.90;;;;;;5052900;28;20202;-86
2022/08/21 07:18:32;;;;;;;2.72;2.53;;;19.10;99.90;;;;;;5052577;28;20320;-86
2022/08/21 07:21:03;;;;;;;3.53;3.25;;;19.10;99.90;;;;;;5052645;28;20229;-86
2022/08/21 07:23:34;;;;;;;3.20;2.90;;;19.10;99.90;;;;;;5052680;28;20205;-87
2022/08/21 07:26:03;;;;;;;3.08;2.88;;;19.00;99.90;;;;;;5052530;28;20244;-86
2022/08/21 07:28:31;;;;;;;3.00;2.58;;;18.90;99.90;;;;;;5052601;28;20315;-86
2022/08/21 07:31:02;;;;;;;3.33;3.05;;;19.00;99.90;;;;;;5052265;28;20311;-86
2022/08/21 07:33:34;;;;;;;3.08;2.75;;;18.90;99.90;;;;;;5052713;28;20288;-85
2022/08/21 07:36:03;;;;;;;3.28;2.88;;;19.00;99.90;;;;;;5052906;28;20241;-86
2022/08/21 07:38:32;;;;;;;2.50;2.40;;;18.90;99.90;;;;;;5052829;28;20209;-86
2022/08/21 07:41:02;;;;;;;3.13;2.92;;;19.00;99.90;;;;;;5052264;28;20249;-86
2022/08/21 07:43:30;;;;;;;2.65;2.45;;;19.10;99.90;;;;;;5052300;28;20213;-86
2022/08/21 07:45:59;;;;;;;3.22;2.95;;;19.10;99.90;;;;;;5052637;28;20212;-86
2022/08/21 07:48:27;;;;;;;2.33;2.20;;;19.10;99.90;;;;;;5051833;28;20205;-87
2022/08/21 07:50:57;;;;;;;3.10;2.90;;;19.20;99.90;;;;;;5052492;28;20296;-86
2022/08/21 07:53:25;;;;;;;2.42;2.33;;;19.20;99.90;;;;;;5052234;28;20265;-86
2022/08/21 07:55:53;;;;;;;2.88;2.67;;;19.10;99.90;;;;;;5052560;28;20243;-86
2022/08/21 07:58:21;;;;;;;3.00;2.80;;;19.00;99.90;;;;;;5051896;28;20293;-86
2022/08/21 08:00:50;;;;;;;3.10;2.90;;;18.80;99.90;;;;;;5051943;28;20257;-86
2022/08/21 08:03:18;;;;;;;3.78;3.38;;;18.70;99.90;;;;;;5052409;28;20332;-86
2022/08/21 08:05:57;;;;;;;3.40;3.10;;;18.60;99.90;;;;;;5052302;28;20240;-87
2022/08/21 08:08:26;;;;;;;3.88;3.58;;;18.50;99.90;;;;;;5052252;28;20210;-88
2022/08/21 08:10:57;;;;;;;4.05;3.75;;;18.40;99.90;;;;;;5052127;28;20309;-85
2022/08/21 08:13:26;;;;;;;4.40;3.97;;;18.30;99.90;;;;;;5052002;28;20229;-88
2022/08/21 08:15:54;;;;;;;3.88;3.58;;;18.30;99.90;;;;;;5052368;28;20240;-87
2022/08/21 08:18:22;;;;;;;5.07;4.68;;;18.30;99.90;;;;;;5051962;28;20245;-88
2022/08/21 08:20:50;;;;;;;3.50;3.25;;;18.40;99.90;;;;;;5052612;28;20249;-88
2022/08/21 08:23:20;;;;;;;4.20;3.88;;;18.40;99.90;;;;;;5055862;28;20225;-86
2022/08/21 08:25:49;;;;;;;3.55;3.35;;;18.40;99.90;;;;;;5055868;28;20205;-86
2022/08/21 08:28:18;;;;;;;4.20;3.90;;;18.50;99.90;;;;;;5055415;28;20221;-86
2022/08/21 08:30:47;;;;;;;3.25;3.05;;;18.50;99.90;;;;;;5055363;28;20221;-87
2022/08/21 08:33:16;;;;;;;3.28;3.08;;;18.60;99.90;;;;;;5056319;28;20214;-86
2022/08/21 08:35:48;;;;;;;3.33;3.13;;;18.60;99.90;;;;;;5055757;28;20274;-85
2022/08/21 08:38:19;;;;;;;3.05;2.58;;;18.70;99.90;;;;;;5055699;28;20212;-87
2022/08/21 08:40:56;;;;;;;2.95;2.75;;;18.80;99.90;;;;;;5055335;28;20225;-86
2022/08/21 08:43:24;;;;;;;4.75;2.42;;;18.90;99.90;;;;;;5055826;28;20232;-86
2022/08/21 08:45:56;;;;;;;3.00;2.72;;;19.00;99.90;;;;;;5055644;28;20206;-86
2022/08/21 08:48:38;;;;;;;2.95;2.75;;;19.10;99.90;;;;;;5055109;28;20226;-86
2022/08/21 08:51:15;;;;;;;3.15;2.95;;;19.10;99.90;;;;;;5055323;28;20290;-87
2022/08/21 08:53:50;;;;;;;3.42;3.13;;;19.20;99.90;;;;;;5055565;28;20288;-86
2022/08/21 08:56:28;;;;;;;3.30;3.10;;;19.30;99.90;;;;;;5055194;28;20274;-86
2022/08/21 08:59:01;;;;;;;3.33;3.13;;;19.40;99.90;;;;;;5055328;28;20297;-85
2022/08/21 09:01:31;;;;;;;3.25;3.05;;;19.50;99.90;;;;;;5055459;28;20236;-85
2022/08/21 09:04:05;;;;;;;2.78;2.58;;;19.70;99.90;;;;;;5055062;28;20212;-86
2022/08/21 09:06:50;;;;;;;2.83;2.63;;;19.80;99.90;;;;;;5054870;28;20300;-86
2022/08/21 09:09:35;;;;;;;2.25;2.15;;;20.00;99.90;;;;;;5055020;28;20201;-86
2022/08/21 09:12:15;;;;;;;2.90;2.70;;;20.00;99.90;;;;;;5055081;28;20236;-86
2022/08/21 09:14:54;;;;;;;2.47;2.38;;;20.00;99.90;;;;;;5055044;28;20288;-86
2022/08/21 09:17:41;;;;;;;1.92;1.83;;;20.00;99.90;;;;;;5054958;28;20212;-86
2022/08/21 09:20:23;;;;;;;2.90;2.17;;;20.00;99.90;;;;;;5054507;28;20279;-86
2022/08/21 09:23:01;;;;;;;2.47;2.38;;;19.90;99.90;;;;;;5060642;28;20247;-87
2022/08/21 09:25:34;;;;;;;2.03;1.92;;;20.00;99.90;;;;;;5069465;28;20230;-86
2022/08/21 09:28:04;;;;;;;2.47;2.28;;;20.10;99.90;;;;;;5057965;28;20227;-86
2022/08/21 09:30:34;;;;;;;1.80;1.70;;;20.00;99.90;;;;;;5054369;28;20288;-86
2022/08/21 09:33:02;;;;;;;2.28;2.08;;;19.80;99.90;;;;;;5054203;28;20277;-86
2022/08/21 09:35:31;;;;;;;2.13;2.00;;;19.70;99.90;;;;;;5054344;28;20202;-86
2022/08/21 09:38:02;;;;;;;1.85;1.75;;;19.60;99.90;;;;;;5054317;28;20202;-87
2022/08/21 09:40:36;;;;;;;1.90;1.80;;;19.60;99.90;;;;;;5054457;28;20249;-86
2022/08/21 09:43:17;;;;;;;2.67;2.47;;;19.60;99.90;;;;;;5054431;28;20209;-87
2022/08/21 09:45:47;;;;;;;1.50;1.50;;;19.70;99.90;;;;;;5054473;28;20227;-86
2022/08/21 09:48:20;;;;;;;1.80;1.70;;;19.60;99.90;;;;;;5053996;28;20280;-86
2022/08/21 09:50:50;;;;;;;1.52;1.42;;;19.60;99.90;;;;;;5053776;28;20262;-86
2022/08/21 09:53:22;;;;;;;2.08;1.95;;;19.60;99.90;;;;;;5054151;28;20216;-86
2022/08/21 09:58:39;;;;;;;1.60;1.50;;;19.50;99.90;;;;;;5052803;28;20216;-85
2022/08/21 10:01:13;;;;;;;1.20;1.20;;;19.50;99.90;;;;;;5053607;28;20229;-85
2022/08/21 10:03:41;;;;;;;1.30;1.30;;;19.50;99.90;;;;;;5053663;28;20205;-85
2022/08/21 10:06:13;;;;;;;1.73;1.63;;;19.60;99.90;;;;;;5053939;28;20202;-85
2022/08/21 10:08:42;;;;;;;1.00;1.00;;;19.80;99.90;;;;;;5053676;28;20206;-85
2022/08/21 10:11:14;;;;;;;1.60;1.50;;;19.80;99.90;;;;;;5053504;28;20236;-85
2022/08/21 10:13:57;;;;;;;1.58;1.48;;;19.90;99.90;;;;;;5053844;28;20290;-85
2022/08/21 10:16:35;;;;;;;1.42;1.40;;;19.90;99.90;;;;;;5053456;28;20205;-86
2022/08/21 10:19:18;;;;;;;1.90;1.80;;;19.80;99.90;;;;;;5053533;28;20209;-85
2022/08/21 10:22:03;;;;;;;3.03;2.72;;;19.60;99.90;;;;;;5053348;28;20236;-85
2022/08/21 10:24:37;;;;;;;2.25;2.05;;;19.70;99.90;;;;;;5053576;28;20220;-85
2022/08/21 10:27:16;;;;;;;1.83;1.73;;;19.70;99.90;;;;;;5053380;28;20285;-85
2022/08/21 10:29:52;;;;;;;2.17;1.98;;;19.70;99.90;;;;;;5053216;28;20292;-85
2022/08/21 10:32:35;;;;;;;2.03;1.92;;;19.70;99.90;;;;;;5053335;28;20229;-85
2022/08/21 10:35:11;;;;;;;1.80;1.70;;;19.70;99.90;;;;;;5053306;28;20317;-85
2022/08/21 10:37:59;;;;;;;1.83;1.70;;;19.60;99.90;;;;;;5053410;28;20235;-86
2022/08/21 10:40:32;;;;;;;1.95;1.85;;;19.60;99.90;;;;;;5053363;28;20210;-86
2022/08/21 10:43:13;;;;;;;1.88;1.77;;;19.60;99.90;;;;;;5053075;28;20211;-86
2022/08/21 10:45:53;;;;;;;2.00;1.90;;;19.60;99.90;;;;;;5053042;28;20232;-86
2022/08/21 10:48:28;;;;;;;2.42;2.25;;;19.70;99.90;;;;;;5053026;28;20215;-86
2022/08/21 10:51:05;;;;;;;2.50;2.15;;;19.70;99.90;;;;;;5053077;28;20275;-86
2022/08/21 10:53:54;;;;;;;2.03;1.92;;;19.50;99.90;;;;;;5053430;28;20284;-86
2022/08/21 10:56:25;;;;;;;1.52;1.42;;;19.40;99.90;;;;;;5053140;28;20252;-86
2022/08/21 10:59:08;;;;;;;1.92;1.83;;;19.30;99.90;;;;;;5052960;28;20240;-85
2022/08/21 11:01:47;;;;;;;2.50;2.30;;;19.30;99.90;;;;;;5052633;28;20237;-85
2022/08/21 11:04:21;;;;;;;2.08;1.98;;;19.30;99.90;;;;;;5053475;28;20207;-86
2022/08/21 11:06:58;;;;;;;1.95;1.50;;;19.30;99.90;;;;;;5052392;28;20212;-86
2022/08/21 11:09:27;;;;;;;1.80;1.70;;;19.00;99.90;;;;;;5052682;28;20205;-86
2022/08/21 11:12:02;;;;;;;1.65;1.45;;;19.10;99.90;;;;;;5052828;28;20236;-87
2022/08/21 11:14:48;;;;;;;1.75;1.65;;;19.40;99.90;;;;;;5052823;28;20259;-87
2022/08/21 11:17:24;;;;;;;1.25;1.25;;;19.80;99.90;;;;;;5053350;28;20209;-87
2022/08/21 11:20:00;;;;;;;1.08;1.08;;;20.30;99.90;;;;;;5052748;28;20209;-87
2022/08/21 11:22:36;;;;;;;1.45;1.02;;;20.70;99.90;;;;;;5052421;28;20232;-86
2022/08/21 11:25:10;;;;;;;1.27;1.25;;;20.90;99.90;;;;;;5052778;28;20211;-86
2022/08/21 11:27:44;;;;;;;1.20;1.20;;;21.20;99.90;;;;;;5052644;28;20213;-86
2022/08/21 11:30:13;;;;;;;1.95;1.83;;;21.40;99.90;;;;;;5052845;28;20217;-86
2022/08/21 11:33:00;;;;;;;1.75;1.65;;;21.50;99.90;;;;;;5052545;28;20229;-86
2022/08/21 11:35:35;;;;;;;1.92;1.23;;;21.60;99.90;;;;;;5052470;28;20197;-86
2022/08/21 11:38:34;;;;;;;1.00;1.00;;;21.50;99.90;;;;;;5052898;28;20243;-87
2022/08/21 11:41:17;;;;;;;1.48;1.38;;;21.50;99.90;;;;;;5052707;28;20229;-87
2022/08/21 11:43:48;;;;;;;1.60;1.50;;;21.50;99.90;;;;;;5052856;28;20212;-86
2022/08/21 11:46:29;;;;;;;1.65;1.40;;;21.50;99.90;;;;;;5052751;28;20205;-86
2022/08/21 11:49:22;;;;;;;1.10;1.10;;;21.50;99.90;;;;;;5052016;28;20296;-86
2022/08/21 11:51:56;;;;;;;1.40;1.30;;;21.50;99.90;;;;;;5052483;28;20226;-86
2022/08/21 11:54:29;;;;;;;1.10;1.10;;;21.40;99.90;;;;;;5052506;28;20288;-87
2022/08/21 11:57:04;;;;;;;1.20;1.10;;;21.30;99.90;;;;;;5055012;28;20288;-87
2022/08/21 11:59:40;;;;;;;1.38;1.23;;;21.00;99.90;;;;;;5056403;28;20204;-86
2022/08/21 12:02:14;;;;;;;1.10;1.10;;;20.90;99.90;;;;;;5056622;28;20243;-86
2022/08/21 12:04:53;;;;;;;1.40;1.30;;;20.90;99.90;;;;;;5056232;28;20205;-86
2022/08/21 12:07:36;;;;;;;1.15;1.15;;;20.80;99.90;;;;;;5056195;28;20216;-86
2022/08/21 12:10:09;;;;;;;1.20;1.20;;;20.80;99.90;;;;;;5055866;28;20209;-87
2022/08/21 12:12:40;;;;;;;1.73;1.38;;;20.70;99.90;;;;;;5056556;28;20222;-86
2022/08/21 12:15:27;;;;;;;1.48;1.40;;;20.70;99.90;;;;;;5056292;28;20205;-87
2022/08/21 12:17:58;;;;;;;1.40;1.30;;;20.80;99.90;;;;;;5056102;28;20301;-86
2022/08/21 12:20:41;;;;;;;1.13;1.13;;;20.80;99.90;;;;;;5056031;28;20302;-87
2022/08/21 12:23:28;;;;;;;1.30;1.20;;;20.90;99.90;;;;;;5055812;28;20226;-87
2022/08/21 12:26:21;;;;;;;3.15;2.88;;;20.70;99.90;;;;;;5056216;28;20267;-87
2022/08/21 12:28:50;;;;;;;1.05;1.05;;;20.40;99.90;;;;;;5055758;28;20297;-86
2022/08/21 12:31:21;;;;;;;1.23;1.17;;;20.20;99.90;;;;;;5055564;28;20316;-87
2022/08/21 12:33:57;;;;;;;1.30;1.20;;;19.90;99.90;;;;;;5055997;28;20316;-86
2022/08/21 12:36:39;;;;;;;1.27;1.27;;;19.80;99.90;;;;;;5055678;28;20293;-86
2022/08/21 12:39:14;;;;;;;1.15;1.15;;;19.80;99.90;;;;;;5055391;28;20237;-86
2022/08/21 12:41:48;;;;;;;1.33;1.23;;;19.80;99.90;;;;;;5055582;28;20226;-87
2022/08/21 12:44:23;;;;;;;2.08;1.98;;;19.90;99.90;;;;;;5056202;28;20205;-86
2022/08/21 12:46:59;;;;;;;1.60;1.50;;;19.80;99.90;;;;;;5055663;28;20212;-86
2022/08/21 12:49:32;;;;;;;1.60;1.50;;;19.80;99.90;;;;;;5055398;28;20284;-86
2022/08/21 12:52:10;;;;;;;1.50;1.40;;;19.80;99.90;;;;;;5055511;28;20285;-86
2022/08/21 12:54:41;;;;;;;1.10;1.10;;;19.80;99.90;;;;;;5055787;28;20215;-86
2022/08/21 12:57:18;;;;;;;1.73;1.02;;;19.80;99.90;;;;;;5055416;28;20206;-86
2022/08/21 12:59:47;;;;;;;1.08;1.08;;;19.80;99.90;;;;;;5055543;28;20236;-86
2022/08/21 13:02:19;;;;;;;1.73;1.63;;;19.70;99.90;;;;;;5055146;28;20232;-86
2022/08/21 13:04:50;;;;;;;1.70;1.60;;;19.70;99.90;;;;;;5066129;28;20288;-86
2022/08/21 13:07:26;;;;;;;1.50;1.40;;;19.70;99.90;;;;;;5064546;28;20236;-86
2022/08/21 13:09:59;;;;;;;1.65;1.52;;;19.70;99.90;;;;;;5054922;28;20292;-88
2022/08/21 13:12:29;;;;;;;1.90;1.75;;;19.80;99.90;;;;;;5055306;28;20225;-88
2022/08/21 13:15:05;;;;;;;1.58;1.48;;;19.80;99.90;;;;;;5054926;28;20206;-85